MQT16 EDDK-EGBB
Flight info
| Callsign | MQT16 |
|---|---|
| Flight time | 1h 3m |
| Altitude | FL360 |
| Route | NVO2K NVO Y868 SOGRI DENUT L610 HEMEL HEME1B |
| Aircraft | A321/M-SDE3FGHIRWY/LB1 |
Departure
| Time | 2026-04-21 10:51 |
|---|---|
| Airport | Cologne Bonn Airport (EDDK) |
Arrival
| Time | 2026-04-21 11:55 |
|---|---|
| Airport | Birmingham Airport (EGBB) |
| Time | Latitude | Longitude | Altitude | Speed | Heading |
|---|---|---|---|---|---|
| 2026-04-21 10:40 | 50.88060 | 7.12193 | 233 ft | 0 kts | 216° |
| 2026-04-21 10:44 | 50.88075 | 7.12210 | 232 ft | 4 kts | 212° |
| 2026-04-21 10:44 | 50.88098 | 7.12230 | 232 ft | 4 kts | 201° |
| 2026-04-21 10:44 | 50.88124 | 7.12241 | 232 ft | 4 kts | 175° |
| 2026-04-21 10:45 | 50.88142 | 7.12230 | 234 ft | 1 kts | 126° |
| 2026-04-21 10:47 | 50.88139 | 7.12236 | 232 ft | 1 kts | 126° |
| 2026-04-21 10:47 | 50.88131 | 7.12254 | 236 ft | 3 kts | 126° |
| 2026-04-21 10:47 | 50.88117 | 7.12284 | 232 ft | 4 kts | 126° |
| 2026-04-21 10:47 | 50.88098 | 7.12325 | 232 ft | 5 kts | 126° |
| 2026-04-21 10:48 | 50.88075 | 7.12377 | 232 ft | 6 kts | 126° |
| 2026-04-21 10:48 | 50.88046 | 7.12439 | 232 ft | 8 kts | 126° |
| 2026-04-21 10:48 | 50.88015 | 7.12515 | 232 ft | 9 kts | 118° |
| 2026-04-21 10:48 | 50.87991 | 7.12611 | 232 ft | 10 kts | 108° |
| 2026-04-21 10:49 | 50.87991 | 7.12718 | 237 ft | 8 kts | 77° |
| 2026-04-21 10:49 | 50.87993 | 7.12731 | 236 ft | 0 kts | 75° |
| 2026-04-21 10:50 | 50.87994 | 7.12735 | 240 ft | 2 kts | 75° |
| 2026-04-21 10:50 | 50.88005 | 7.12805 | 238 ft | 11 kts | 77° |
| 2026-04-21 10:50 | 50.88002 | 7.12949 | 239 ft | 14 kts | 105° |
| 2026-04-21 10:50 | 50.87934 | 7.13074 | 239 ft | 19 kts | 137° |
| 2026-04-21 10:51 | 50.87674 | 7.13459 | 239 ft | 88 kts | 136° |
| 2026-04-21 10:51 | 50.87063 | 7.14343 | 253 ft | 148 kts | 137° |
| 2026-04-21 10:51 | 50.86219 | 7.15541 | 588 ft | 168 kts | 136° |
| 2026-04-21 10:51 | 50.85324 | 7.16718 | 1355 ft | 166 kts | 137° |
| 2026-04-21 10:52 | 50.84418 | 7.17991 | 1781 ft | 185 kts | 135° |
| 2026-04-21 10:52 | 50.83414 | 7.19426 | 2056 ft | 205 kts | 135° |
| 2026-04-21 10:52 | 50.82302 | 7.21016 | 2329 ft | 224 kts | 134° |
| 2026-04-21 10:52 | 50.81132 | 7.22673 | 2962 ft | 227 kts | 135° |
| 2026-04-21 10:53 | 50.79900 | 7.24233 | 3602 ft | 232 kts | 148° |
| 2026-04-21 10:53 | 50.78338 | 7.24921 | 4201 ft | 240 kts | 175° |
| 2026-04-21 10:53 | 50.76696 | 7.24343 | 4809 ft | 248 kts | 205° |
| 2026-04-21 10:53 | 50.75392 | 7.22545 | 5414 ft | 256 kts | 237° |
| 2026-04-21 10:54 | 50.74804 | 7.19924 | 6153 ft | 256 kts | 268° |
| 2026-04-21 10:54 | 50.75008 | 7.17153 | 6834 ft | 260 kts | 284° |
| 2026-04-21 10:54 | 50.75411 | 7.14262 | 7182 ft | 279 kts | 285° |
| 2026-04-21 10:54 | 50.75841 | 7.11231 | 7803 ft | 285 kts | 284° |
| 2026-04-21 10:55 | 50.76274 | 7.08158 | 8506 ft | 289 kts | 284° |
| 2026-04-21 10:55 | 50.76707 | 7.05038 | 9221 ft | 293 kts | 284° |
| 2026-04-21 10:55 | 50.77140 | 7.01882 | 9939 ft | 297 kts | 284° |
| 2026-04-21 10:55 | 50.77576 | 6.98672 | 10531 ft | 305 kts | 284° |
| 2026-04-21 10:56 | 50.78037 | 6.95284 | 10680 ft | 327 kts | 284° |
| 2026-04-21 10:56 | 50.78527 | 6.91661 | 10822 ft | 348 kts | 283° |
| 2026-04-21 10:56 | 50.79046 | 6.87816 | 10960 ft | 367 kts | 283° |
| 2026-04-21 10:56 | 50.79582 | 6.83835 | 11401 ft | 375 kts | 283° |
| 2026-04-21 10:57 | 50.80126 | 6.79780 | 11967 ft | 379 kts | 283° |
| 2026-04-21 10:57 | 50.80675 | 6.75687 | 12557 ft | 383 kts | 283° |
| 2026-04-21 10:57 | 50.81224 | 6.71570 | 13134 ft | 386 kts | 283° |
| 2026-04-21 10:57 | 50.81781 | 6.67388 | 13718 ft | 390 kts | 283° |
| 2026-04-21 10:58 | 50.82245 | 6.63159 | 14264 ft | 395 kts | 277° |
| 2026-04-21 10:58 | 50.82342 | 6.58810 | 14798 ft | 398 kts | 272° |
| 2026-04-21 10:58 | 50.82389 | 6.54431 | 15371 ft | 399 kts | 272° |
| 2026-04-21 10:58 | 50.82439 | 6.50043 | 15953 ft | 400 kts | 272° |
| 2026-04-21 10:59 | 50.82492 | 6.45648 | 16492 ft | 402 kts | 272° |
| 2026-04-21 10:59 | 50.82550 | 6.41229 | 17011 ft | 404 kts | 272° |
| 2026-04-21 10:59 | 50.82606 | 6.36779 | 17518 ft | 406 kts | 272° |
| 2026-04-21 10:59 | 50.82660 | 6.32303 | 18029 ft | 409 kts | 272° |
| 2026-04-21 11:00 | 50.82710 | 6.27811 | 18562 ft | 411 kts | 272° |
| 2026-04-21 11:00 | 50.82756 | 6.23280 | 19002 ft | 414 kts | 272° |
| 2026-04-21 11:00 | 50.82799 | 6.18733 | 19433 ft | 416 kts | 272° |
| 2026-04-21 11:00 | 50.82842 | 6.14164 | 19867 ft | 418 kts | 272° |
| 2026-04-21 11:01 | 50.82885 | 6.09558 | 20291 ft | 420 kts | 272° |
| 2026-04-21 11:01 | 50.82928 | 6.04940 | 20696 ft | 423 kts | 272° |
| 2026-04-21 11:01 | 50.82962 | 6.00285 | 21125 ft | 425 kts | 272° |
| 2026-04-21 11:02 | 50.82829 | 5.90885 | 21982 ft | 430 kts | 269° |
| 2026-04-21 11:02 | 50.82700 | 5.86160 | 22411 ft | 432 kts | 269° |
| 2026-04-21 11:02 | 50.82561 | 5.81407 | 22820 ft | 435 kts | 269° |
| 2026-04-21 11:02 | 50.82429 | 5.76627 | 23222 ft | 437 kts | 270° |
| 2026-04-21 11:03 | 50.82308 | 5.71831 | 23623 ft | 439 kts | 269° |
| 2026-04-21 11:03 | 50.82194 | 5.67010 | 23993 ft | 441 kts | 270° |
| 2026-04-21 11:03 | 50.82085 | 5.62163 | 24311 ft | 443 kts | 270° |
| 2026-04-21 11:03 | 50.81977 | 5.57305 | 24651 ft | 444 kts | 270° |
| 2026-04-21 11:04 | 50.81868 | 5.52424 | 25004 ft | 446 kts | 270° |
| 2026-04-21 11:04 | 50.81756 | 5.47536 | 25343 ft | 448 kts | 270° |
| 2026-04-21 11:04 | 50.81639 | 5.42607 | 25666 ft | 449 kts | 269° |
| 2026-04-21 11:04 | 50.81519 | 5.37672 | 25989 ft | 451 kts | 270° |
| 2026-04-21 11:05 | 50.81395 | 5.32712 | 26314 ft | 453 kts | 270° |
| 2026-04-21 11:05 | 50.81268 | 5.27739 | 26630 ft | 454 kts | 269° |
| 2026-04-21 11:05 | 50.81138 | 5.22752 | 26928 ft | 456 kts | 270° |
| 2026-04-21 11:05 | 50.81003 | 5.17747 | 27220 ft | 458 kts | 270° |
| 2026-04-21 11:06 | 50.80870 | 5.12708 | 27486 ft | 459 kts | 271° |
| 2026-04-21 11:06 | 50.81019 | 5.07694 | 27744 ft | 458 kts | 279° |
| 2026-04-21 11:06 | 50.81634 | 5.02787 | 27993 ft | 456 kts | 288° |
| 2026-04-21 11:06 | 50.82703 | 4.98079 | 28219 ft | 455 kts | 296° |
| 2026-04-21 11:07 | 50.84113 | 4.93627 | 28535 ft | 453 kts | 299° |
| 2026-04-21 11:07 | 50.85535 | 4.89193 | 28909 ft | 452 kts | 299° |
| 2026-04-21 11:07 | 50.86934 | 4.84768 | 29278 ft | 450 kts | 298° |
| 2026-04-21 11:07 | 50.88319 | 4.80353 | 29614 ft | 449 kts | 298° |
| 2026-04-21 11:08 | 50.89705 | 4.75920 | 29926 ft | 449 kts | 298° |
| 2026-04-21 11:08 | 50.91090 | 4.71506 | 30244 ft | 448 kts | 298° |
| 2026-04-21 11:08 | 50.92477 | 4.67096 | 30563 ft | 446 kts | 298° |
| 2026-04-21 11:08 | 50.93849 | 4.62729 | 30904 ft | 443 kts | 298° |
| 2026-04-21 11:09 | 50.95220 | 4.58356 | 31176 ft | 442 kts | 298° |
| 2026-04-21 11:09 | 50.96582 | 4.54000 | 31442 ft | 441 kts | 298° |
| 2026-04-21 11:09 | 50.97938 | 4.49654 | 31718 ft | 440 kts | 298° |
| 2026-04-21 11:09 | 50.99284 | 4.45326 | 32008 ft | 438 kts | 297° |
| 2026-04-21 11:10 | 51.00623 | 4.40997 | 32289 ft | 437 kts | 297° |
| 2026-04-21 11:10 | 51.01960 | 4.36675 | 32561 ft | 436 kts | 297° |
| 2026-04-21 11:10 | 51.03292 | 4.32369 | 32842 ft | 434 kts | 297° |
| 2026-04-21 11:10 | 51.04614 | 4.28084 | 33118 ft | 433 kts | 297° |
| 2026-04-21 11:11 | 51.05934 | 4.23801 | 33397 ft | 432 kts | 297° |
| 2026-04-21 11:11 | 51.07252 | 4.19528 | 33650 ft | 430 kts | 297° |
| 2026-04-21 11:11 | 51.08564 | 4.15270 | 33908 ft | 429 kts | 297° |
| 2026-04-21 11:11 | 51.09872 | 4.11017 | 34161 ft | 428 kts | 297° |
| 2026-04-21 11:12 | 51.11173 | 4.06779 | 34385 ft | 427 kts | 297° |
| 2026-04-21 11:12 | 51.12470 | 4.02537 | 34562 ft | 427 kts | 297° |
| 2026-04-21 11:12 | 51.13760 | 3.98301 | 34720 ft | 427 kts | 297° |
| 2026-04-21 11:12 | 51.15051 | 3.94054 | 34869 ft | 427 kts | 297° |
| 2026-04-21 11:13 | 51.16342 | 3.89802 | 35013 ft | 427 kts | 297° |
| 2026-04-21 11:13 | 51.17635 | 3.85546 | 35177 ft | 428 kts | 297° |
| 2026-04-21 11:13 | 51.18928 | 3.81291 | 35320 ft | 428 kts | 297° |
| 2026-04-21 11:13 | 51.20217 | 3.77025 | 35492 ft | 427 kts | 297° |
| 2026-04-21 11:14 | 51.21500 | 3.72771 | 35694 ft | 426 kts | 297° |
| 2026-04-21 11:14 | 51.22780 | 3.68512 | 35862 ft | 426 kts | 295° |
| 2026-04-21 11:14 | 51.23813 | 3.64085 | 36006 ft | 429 kts | 287° |
| 2026-04-21 11:14 | 51.24478 | 3.59453 | 36167 ft | 430 kts | 284° |
| 2026-04-21 11:15 | 51.25664 | 3.50412 | 36291 ft | 432 kts | 284° |
| 2026-04-21 11:15 | 51.26897 | 3.41046 | 36286 ft | 432 kts | 284° |
| 2026-04-21 11:16 | 51.28115 | 3.31665 | 36272 ft | 432 kts | 284° |
| 2026-04-21 11:16 | 51.29317 | 3.22297 | 36298 ft | 432 kts | 284° |
| 2026-04-21 11:17 | 51.30507 | 3.12896 | 36299 ft | 433 kts | 283° |
| 2026-04-21 11:17 | 51.31700 | 3.03466 | 36311 ft | 434 kts | 283° |
| 2026-04-21 11:18 | 51.32892 | 2.94027 | 36314 ft | 434 kts | 283° |
| 2026-04-21 11:18 | 51.34080 | 2.84577 | 36309 ft | 435 kts | 283° |
| 2026-04-21 11:19 | 51.35248 | 2.75108 | 36322 ft | 434 kts | 283° |
| 2026-04-21 11:19 | 51.36409 | 2.65659 | 36328 ft | 434 kts | 283° |
| 2026-04-21 11:20 | 51.37574 | 2.56194 | 36334 ft | 434 kts | 283° |
| 2026-04-21 11:20 | 51.38731 | 2.46741 | 36337 ft | 434 kts | 283° |
| 2026-04-21 11:21 | 51.39875 | 2.37279 | 36322 ft | 434 kts | 283° |
| 2026-04-21 11:21 | 51.41006 | 2.27829 | 36343 ft | 433 kts | 283° |
| 2026-04-21 11:22 | 51.42145 | 2.18395 | 36350 ft | 432 kts | 283° |
| 2026-04-21 11:22 | 51.43273 | 2.09200 | 36355 ft | 432 kts | 283° |
| 2026-04-21 11:23 | 51.44388 | 1.99989 | 36354 ft | 432 kts | 283° |
| 2026-04-21 11:23 | 51.45485 | 1.90801 | 36334 ft | 432 kts | 283° |
| 2026-04-21 11:24 | 51.46548 | 1.81703 | 36350 ft | 431 kts | 283° |
| 2026-04-21 11:24 | 51.47632 | 1.72276 | 36361 ft | 430 kts | 283° |
| 2026-04-21 11:25 | 51.48242 | 1.66955 | 36356 ft | 430 kts | 283° |
| 2026-04-21 11:26 | 51.50852 | 1.44018 | 36340 ft | 429 kts | 282° |
| 2026-04-21 11:26 | 51.51897 | 1.34611 | 36354 ft | 429 kts | 282° |
| 2026-04-21 11:27 | 51.52942 | 1.25210 | 36363 ft | 428 kts | 282° |
| 2026-04-21 11:27 | 51.53984 | 1.15836 | 36363 ft | 427 kts | 282° |
| 2026-04-21 11:28 | 51.55018 | 1.06447 | 36363 ft | 427 kts | 282° |
| 2026-04-21 11:28 | 51.56035 | 0.97066 | 36362 ft | 427 kts | 282° |
| 2026-04-21 11:29 | 51.57047 | 0.87699 | 36381 ft | 426 kts | 282° |
| 2026-04-21 11:29 | 51.58055 | 0.78335 | 36384 ft | 426 kts | 282° |
| 2026-04-21 11:30 | 51.59047 | 0.68966 | 36378 ft | 426 kts | 282° |
| 2026-04-21 11:30 | 51.60028 | 0.59597 | 36377 ft | 426 kts | 282° |
| 2026-04-21 11:31 | 51.61003 | 0.50207 | 36344 ft | 426 kts | 282° |
| 2026-04-21 11:31 | 51.61489 | 0.45528 | 36068 ft | 423 kts | 282° |
| 2026-04-21 11:31 | 51.61971 | 0.40900 | 35820 ft | 418 kts | 282° |
| 2026-04-21 11:32 | 51.62447 | 0.36309 | 35573 ft | 416 kts | 282° |
| 2026-04-21 11:32 | 51.62917 | 0.31741 | 35235 ft | 413 kts | 282° |
| 2026-04-21 11:32 | 51.63382 | 0.27192 | 34548 ft | 413 kts | 282° |
| 2026-04-21 11:32 | 51.63846 | 0.22640 | 33750 ft | 413 kts | 283° |
| 2026-04-21 11:33 | 51.64320 | 0.18105 | 32987 ft | 410 kts | 285° |
| 2026-04-21 11:33 | 51.65067 | 0.13713 | 32175 ft | 406 kts | 292° |
| 2026-04-21 11:33 | 51.66170 | 0.09571 | 31398 ft | 402 kts | 296° |
| 2026-04-21 11:33 | 51.67335 | 0.05492 | 30549 ft | 402 kts | 296° |
| 2026-04-21 11:34 | 51.68497 | 0.01399 | 29577 ft | 402 kts | 296° |
| 2026-04-21 11:34 | 51.69649 | -0.02682 | 28781 ft | 400 kts | 296° |
| 2026-04-21 11:34 | 51.70788 | -0.06749 | 27913 ft | 398 kts | 296° |
| 2026-04-21 11:34 | 51.71928 | -0.10833 | 26973 ft | 401 kts | 296° |
| 2026-04-21 11:35 | 51.73054 | -0.14873 | 26453 ft | 393 kts | 296° |
| 2026-04-21 11:35 | 51.74164 | -0.18863 | 25865 ft | 388 kts | 296° |
| 2026-04-21 11:35 | 51.75257 | -0.22798 | 25275 ft | 384 kts | 296° |
| 2026-04-21 11:35 | 51.76340 | -0.26701 | 24690 ft | 381 kts | 296° |
| 2026-04-21 11:36 | 51.77418 | -0.30579 | 24108 ft | 379 kts | 296° |
| 2026-04-21 11:36 | 51.78493 | -0.34456 | 23467 ft | 379 kts | 296° |
| 2026-04-21 11:36 | 51.79744 | -0.38196 | 22787 ft | 378 kts | 304° |
| 2026-04-21 11:36 | 51.81340 | -0.41520 | 22223 ft | 379 kts | 314° |
| 2026-04-21 11:37 | 51.83345 | -0.44456 | 21867 ft | 398 kts | 323° |
| 2026-04-21 11:37 | 51.85694 | -0.46922 | 21455 ft | 407 kts | 330° |
| 2026-04-21 11:37 | 51.88124 | -0.49266 | 21030 ft | 408 kts | 330° |
| 2026-04-21 11:37 | 51.90546 | -0.51618 | 20617 ft | 410 kts | 330° |
| 2026-04-21 11:38 | 51.93001 | -0.54012 | 20195 ft | 412 kts | 331° |
| 2026-04-21 11:38 | 51.95460 | -0.56412 | 19787 ft | 415 kts | 330° |
| 2026-04-21 11:38 | 51.97934 | -0.58831 | 19364 ft | 417 kts | 330° |
| 2026-04-21 11:38 | 52.00416 | -0.61259 | 18937 ft | 419 kts | 332° |
| 2026-04-21 11:39 | 52.02915 | -0.63704 | 18498 ft | 421 kts | 330° |
| 2026-04-21 11:39 | 52.05413 | -0.66155 | 18069 ft | 420 kts | 331° |
| 2026-04-21 11:39 | 52.07894 | -0.68594 | 17654 ft | 416 kts | 330° |
| 2026-04-21 11:39 | 52.10357 | -0.71019 | 17227 ft | 414 kts | 332° |
| 2026-04-21 11:40 | 52.10511 | -0.71171 | 17206 ft | 413 kts | 331° |
| 2026-04-21 11:40 | 52.12407 | -0.73055 | 16867 ft | 412 kts | 330° |
| 2026-04-21 11:40 | 52.14838 | -0.75464 | 16445 ft | 409 kts | 332° |
| 2026-04-21 11:40 | 52.17248 | -0.77836 | 16037 ft | 406 kts | 332° |
| 2026-04-21 11:41 | 52.19665 | -0.80213 | 15618 ft | 403 kts | 330° |
| 2026-04-21 11:41 | 52.21862 | -0.82835 | 15231 ft | 401 kts | 320° |
| 2026-04-21 11:41 | 52.23733 | -0.86214 | 14818 ft | 402 kts | 307° |
| 2026-04-21 11:41 | 52.25096 | -0.89994 | 14429 ft | 400 kts | 295° |
| 2026-04-21 11:42 | 52.26045 | -0.94373 | 13979 ft | 401 kts | 288° |
| 2026-04-21 11:42 | 52.27094 | -0.98545 | 13417 ft | 394 kts | 297° |
| 2026-04-21 11:42 | 52.28398 | -1.02483 | 12800 ft | 391 kts | 301° |
| 2026-04-21 11:42 | 52.29801 | -1.06252 | 12252 ft | 387 kts | 303° |
| 2026-04-21 11:43 | 52.31199 | -1.09879 | 11682 ft | 386 kts | 303° |
| 2026-04-21 11:43 | 52.32584 | -1.13526 | 11266 ft | 377 kts | 303° |
| 2026-04-21 11:43 | 52.33883 | -1.17074 | 11139 ft | 359 kts | 302° |
| 2026-04-21 11:43 | 52.35054 | -1.20372 | 11016 ft | 343 kts | 301° |
| 2026-04-21 11:44 | 52.36246 | -1.23807 | 10889 ft | 328 kts | 301° |
| 2026-04-21 11:44 | 52.37327 | -1.26955 | 10763 ft | 315 kts | 301° |
| 2026-04-21 11:44 | 52.38393 | -1.30069 | 10486 ft | 308 kts | 301° |
| 2026-04-21 11:44 | 52.39431 | -1.33102 | 10284 ft | 304 kts | 301° |
| 2026-04-21 11:45 | 52.40465 | -1.36114 | 10160 ft | 304 kts | 301° |
| 2026-04-21 11:45 | 52.41463 | -1.39008 | 10028 ft | 304 kts | 301° |
| 2026-04-21 11:45 | 52.42511 | -1.42046 | 9641 ft | 305 kts | 301° |
| 2026-04-21 11:45 | 52.43568 | -1.45118 | 9139 ft | 305 kts | 301° |
| 2026-04-21 11:46 | 52.44589 | -1.48098 | 8757 ft | 303 kts | 301° |
| 2026-04-21 11:46 | 52.45569 | -1.50957 | 8313 ft | 304 kts | 301° |
| 2026-04-21 11:46 | 52.46637 | -1.54080 | 7986 ft | 300 kts | 300° |
| 2026-04-21 11:46 | 52.47651 | -1.57051 | 7582 ft | 299 kts | 300° |
| 2026-04-21 11:47 | 52.48661 | -1.60011 | 7213 ft | 298 kts | 300° |
| 2026-04-21 11:47 | 52.49662 | -1.62950 | 6822 ft | 296 kts | 300° |
| 2026-04-21 11:47 | 52.50602 | -1.65712 | 6430 ft | 295 kts | 300° |
| 2026-04-21 11:47 | 52.51631 | -1.68743 | 6001 ft | 293 kts | 301° |
| 2026-04-21 11:48 | 52.52610 | -1.71636 | 5612 ft | 291 kts | 301° |
| 2026-04-21 11:48 | 52.53575 | -1.74489 | 5224 ft | 289 kts | 302° |
| 2026-04-21 11:48 | 52.54564 | -1.77408 | 4807 ft | 288 kts | 302° |
| 2026-04-21 11:48 | 52.55561 | -1.80344 | 4125 ft | 297 kts | 302° |
| 2026-04-21 11:49 | 52.56537 | -1.83226 | 3932 ft | 287 kts | 303° |
| 2026-04-21 11:49 | 52.57439 | -1.85900 | 3781 ft | 277 kts | 303° |
| 2026-04-21 11:49 | 52.58372 | -1.88674 | 3655 ft | 265 kts | 303° |
| 2026-04-21 11:49 | 52.59205 | -1.91299 | 3552 ft | 255 kts | 293° |
| 2026-04-21 11:50 | 52.59300 | -1.94067 | 3507 ft | 244 kts | 253° |
| 2026-04-21 11:50 | 52.58393 | -1.96216 | 3468 ft | 221 kts | 209° |
| 2026-04-21 11:50 | 52.57070 | -1.96745 | 3405 ft | 183 kts | 160° |
| 2026-04-21 11:50 | 52.56196 | -1.95712 | 3322 ft | 146 kts | 109° |
| 2026-04-21 11:51 | 52.55868 | -1.94223 | 3142 ft | 141 kts | 110° |
| 2026-04-21 11:51 | 52.55445 | -1.92795 | 2978 ft | 138 kts | 110° |
| 2026-04-21 11:51 | 52.55028 | -1.91380 | 2819 ft | 137 kts | 109° |
| 2026-04-21 11:51 | 52.54627 | -1.90016 | 2652 ft | 138 kts | 110° |
| 2026-04-21 11:52 | 52.54216 | -1.88619 | 2487 ft | 137 kts | 110° |
| 2026-04-21 11:52 | 52.53815 | -1.87255 | 2349 ft | 137 kts | 110° |
| 2026-04-21 11:52 | 52.53408 | -1.85872 | 2185 ft | 136 kts | 111° |
| 2026-04-21 11:52 | 52.52998 | -1.84515 | 2029 ft | 137 kts | 114° |
| 2026-04-21 11:53 | 52.52432 | -1.83276 | 1858 ft | 139 kts | 125° |
| 2026-04-21 11:53 | 52.51721 | -1.82164 | 1684 ft | 138 kts | 132° |
| 2026-04-21 11:53 | 52.50978 | -1.81184 | 1501 ft | 138 kts | 135° |
| 2026-04-21 11:53 | 52.50228 | -1.80275 | 1315 ft | 138 kts | 137° |
| 2026-04-21 11:54 | 52.49440 | -1.79357 | 1116 ft | 139 kts | 136° |
| 2026-04-21 11:54 | 52.48643 | -1.78451 | 915 ft | 140 kts | 136° |
| 2026-04-21 11:54 | 52.47847 | -1.77555 | 723 ft | 141 kts | 138° |
| 2026-04-21 11:54 | 52.47031 | -1.76641 | 524 ft | 143 kts | 136° |
| 2026-04-21 11:55 | 52.46224 | -1.75742 | 337 ft | 144 kts | 140° |
| 2026-04-21 11:55 | 52.45560 | -1.74830 | 322 ft | 96 kts | 129° |
| 2026-04-21 11:55 | 52.45382 | -1.74399 | 326 ft | 20 kts | 120° |
| 2026-04-21 11:55 | 52.45320 | -1.74220 | 324 ft | 18 kts | 118° |
| 2026-04-21 11:56 | 52.45301 | -1.74050 | 329 ft | 16 kts | 82° |
| 2026-04-21 11:56 | 52.45303 | -1.73906 | 328 ft | 10 kts | 138° |
| 2026-04-21 11:56 | 52.45290 | -1.73885 | 328 ft | 0 kts | 134° |